Rising Sun, Illinois
Current Conditions -  °F | °C
As of 12:18 PM on Monday 26 Jan 2015 (Local Time) from KCUL Reporting Station
Scattered Clouds Scattered Clouds  
Wind Chill: 27°   Ceiling: Unl
Heat Index: 34°   Visibility: 10mi
Dew Point: 27°   Wind: 8mph
Humidity: 75%   Direction: 270°W
Pressure: 29.99"   Gusts: NA
Location:  38.0491°N, 88.1124°W
Report Text: KCUL 261818Z AUTO 27007KT 10SM SCT020 SCT075 SCT090 01/M03 A2999 RMK AO2
Loading
Personal Weather Stations






























Interactive Weather Map New forecast layout! Learn more

10-Day Weather Forecast

Advertisements
Track Severe Weather on mobile